sensor_id;sensor_type;location;lat;lon;timestamp;temperature;humidity
9820;DHT22;4949;48.482;9.206;2024-01-16T00:02:18;0.10;85.30
9820;DHT22;4949;48.482;9.206;2024-01-16T00:07:19;0.30;85.00
9820;DHT22;4949;48.482;9.206;2024-01-16T00:12:28;0.40;85.80
9820;DHT22;4949;48.482;9.206;2024-01-16T00:17:28;0.30;86.00
9820;DHT22;4949;48.482;9.206;2024-01-16T00:22:29;0.30;86.10
9820;DHT22;4949;48.482;9.206;2024-01-16T00:27:30;0.30;86.00
9820;DHT22;4949;48.482;9.206;2024-01-16T00:32:30;0.30;85.60
9820;DHT22;4949;48.482;9.206;2024-01-16T00:37:34;0.30;85.90
9820;DHT22;4949;48.482;9.206;2024-01-16T00:42:38;0.00;86.00
9820;DHT22;4949;48.482;9.206;2024-01-16T00:47:39;0.30;86.20
9820;DHT22;4949;48.482;9.206;2024-01-16T00:52:42;0.40;86.50
9820;DHT22;4949;48.482;9.206;2024-01-16T00:57:42;0.30;86.10
9820;DHT22;4949;48.482;9.206;2024-01-16T01:02:43;0.40;86.50
9820;DHT22;4949;48.482;9.206;2024-01-16T01:07:44;0.20;86.40
9820;DHT22;4949;48.482;9.206;2024-01-16T01:12:47;0.40;86.20
9820;DHT22;4949;48.482;9.206;2024-01-16T01:17:51;0.70;86.90
9820;DHT22;4949;48.482;9.206;2024-01-16T01:22:57;0.30;86.50
9820;DHT22;4949;48.482;9.206;2024-01-16T01:28:00;-0.10;86.20
9820;DHT22;4949;48.482;9.206;2024-01-16T01:33:06;0.40;85.80
9820;DHT22;4949;48.482;9.206;2024-01-16T01:38:06;0.40;86.60
9820;DHT22;4949;48.482;9.206;2024-01-16T01:43:21;-0.10;85.50
9820;DHT22;4949;48.482;9.206;2024-01-16T01:48:28;0.20;86.10
9820;DHT22;4949;48.482;9.206;2024-01-16T01:53:33;0.30;86.10
9820;DHT22;4949;48.482;9.206;2024-01-16T01:58:38;0.70;85.80
9820;DHT22;4949;48.482;9.206;2024-01-16T02:03:47;0.40;85.80
9820;DHT22;4949;48.482;9.206;2024-01-16T02:08:49;0.40;85.10
9820;DHT22;4949;48.482;9.206;2024-01-16T02:13:50;0.80;86.10
9820;DHT22;4949;48.482;9.206;2024-01-16T02:18:53;0.30;86.00
9820;DHT22;4949;48.482;9.206;2024-01-16T02:23:54;0.30;86.00
9820;DHT22;4949;48.482;9.206;2024-01-16T02:28:58;0.50;86.00
9820;DHT22;4949;48.482;9.206;2024-01-16T02:33:59;0.20;85.70
9820;DHT22;4949;48.482;9.206;2024-01-16T02:39:04;0.00;85.40
9820;DHT22;4949;48.482;9.206;2024-01-16T02:44:08;0.30;85.40
9820;DHT22;4949;48.482;9.206;2024-01-16T02:49:08;0.30;84.80
9820;DHT22;4949;48.482;9.206;2024-01-16T02:54:09;-0.10;84.80
9820;DHT22;4949;48.482;9.206;2024-01-16T02:59:10;0.30;84.90
9820;DHT22;4949;48.482;9.206;2024-01-16T03:04:16;0.70;85.60
9820;DHT22;4949;48.482;9.206;2024-01-16T03:09:19;-0.20;85.00
9820;DHT22;4949;48.482;9.206;2024-01-16T03:14:20;0.10;85.40
9820;DHT22;4949;48.482;9.206;2024-01-16T03:19:23;0.10;85.50
9820;DHT22;4949;48.482;9.206;2024-01-16T03:24:24;0.30;85.60
9820;DHT22;4949;48.482;9.206;2024-01-16T03:29:29;0.00;85.10
9820;DHT22;4949;48.482;9.206;2024-01-16T03:34:34;0.00;85.10
9820;DHT22;4949;48.482;9.206;2024-01-16T03:39:37;-0.50;85.00
9820;DHT22;4949;48.482;9.206;2024-01-16T03:44:40;-0.20;85.60
9820;DHT22;4949;48.482;9.206;2024-01-16T03:49:40;-0.50;85.40
9820;DHT22;4949;48.482;9.206;2024-01-16T03:54:44;-0.50;86.20
9820;DHT22;4949;48.482;9.206;2024-01-16T03:59:47;-0.30;86.30
9820;DHT22;4949;48.482;9.206;2024-01-16T04:04:48;0.10;87.30
9820;DHT22;4949;48.482;9.206;2024-01-16T04:09:49;-0.40;86.70
9820;DHT22;4949;48.482;9.206;2024-01-16T04:14:52;-0.60;86.60
9820;DHT22;4949;48.482;9.206;2024-01-16T04:19:52;-0.70;86.60
9820;DHT22;4949;48.482;9.206;2024-01-16T04:24:53;-0.40;86.90
9820;DHT22;4949;48.482;9.206;2024-01-16T04:29:56;-0.50;86.70
9820;DHT22;4949;48.482;9.206;2024-01-16T04:34:59;-0.60;87.50
9820;DHT22;4949;48.482;9.206;2024-01-16T04:40:03;-1.00;86.80
9820;DHT22;4949;48.482;9.206;2024-01-16T04:45:06;-0.70;87.50
9820;DHT22;4949;48.482;9.206;2024-01-16T04:50:07;-0.70;88.00
9820;DHT22;4949;48.482;9.206;2024-01-16T04:55:11;-1.30;88.20
9820;DHT22;4949;48.482;9.206;2024-01-16T05:00:14;-0.90;88.90
9820;DHT22;4949;48.482;9.206;2024-01-16T05:05:15;-1.10;88.80
9820;DHT22;4949;48.482;9.206;2024-01-16T05:10:16;-1.20;89.50
9820;DHT22;4949;48.482;9.206;2024-01-16T05:15:22;-1.50;89.50
9820;DHT22;4949;48.482;9.206;2024-01-16T05:20:25;-1.60;89.80
9820;DHT22;4949;48.482;9.206;2024-01-16T05:25:26;-1.40;90.00
9820;DHT22;4949;48.482;9.206;2024-01-16T05:30:32;-1.40;90.10
9820;DHT22;4949;48.482;9.206;2024-01-16T05:35:34;-1.70;88.80
9820;DHT22;4949;48.482;9.206;2024-01-16T05:40:37;-1.20;88.10
9820;DHT22;4949;48.482;9.206;2024-01-16T05:45:38;-1.20;88.00
9820;DHT22;4949;48.482;9.206;2024-01-16T05:50:42;-1.50;87.90
9820;DHT22;4949;48.482;9.206;2024-01-16T05:55:42;-1.60;87.60
9820;DHT22;4949;48.482;9.206;2024-01-16T06:00:43;-1.70;88.30
9820;DHT22;4949;48.482;9.206;2024-01-16T06:05:44;-1.60;88.10
9820;DHT22;4949;48.482;9.206;2024-01-16T06:10:45;-1.40;89.10
9820;DHT22;4949;48.482;9.206;2024-01-16T06:15:48;-1.70;89.00
9820;DHT22;4949;48.482;9.206;2024-01-16T06:20:49;-1.60;88.70
9820;DHT22;4949;48.482;9.206;2024-01-16T06:25:49;-1.20;89.00
9820;DHT22;4949;48.482;9.206;2024-01-16T06:30:53;-1.00;89.00
9820;DHT22;4949;48.482;9.206;2024-01-16T06:35:57;-1.30;88.60
9820;DHT22;4949;48.482;9.206;2024-01-16T06:40:58;-1.50;90.10
9820;DHT22;4949;48.482;9.206;2024-01-16T06:46:02;-1.10;90.40
9820;DHT22;4949;48.482;9.206;2024-01-16T06:51:03;-1.20;90.50
9820;DHT22;4949;48.482;9.206;2024-01-16T06:56:06;-1.60;90.50
9820;DHT22;4949;48.482;9.206;2024-01-16T07:01:09;-1.60;90.50
9820;DHT22;4949;48.482;9.206;2024-01-16T07:06:12;-1.90;90.10
9820;DHT22;4949;48.482;9.206;2024-01-16T07:11:15;-2.10;90.20
9820;DHT22;4949;48.482;9.206;2024-01-16T07:16:19;-1.10;90.30
9820;DHT22;4949;48.482;9.206;2024-01-16T07:21:22;-1.70;89.90
9820;DHT22;4949;48.482;9.206;2024-01-16T07:26:25;-1.60;89.50
9820;DHT22;4949;48.482;9.206;2024-01-16T07:31:26;-1.60;90.00
9820;DHT22;4949;48.482;9.206;2024-01-16T07:36:27;-1.70;90.10
9820;DHT22;4949;48.482;9.206;2024-01-16T07:41:30;-1.30;90.20
9820;DHT22;4949;48.482;9.206;2024-01-16T07:46:31;-1.80;89.60
9820;DHT22;4949;48.482;9.206;2024-01-16T07:51:31;-2.20;90.10
9820;DHT22;4949;48.482;9.206;2024-01-16T07:56:33;-1.70;90.50
9820;DHT22;4949;48.482;9.206;2024-01-16T08:01:36;-2.10;89.90
9820;DHT22;4949;48.482;9.206;2024-01-16T08:06:38;-2.10;90.10
9820;DHT22;4949;48.482;9.206;2024-01-16T08:11:43;-1.80;90.10
9820;DHT22;4949;48.482;9.206;2024-01-16T08:16:46;-1.80;90.10
9820;DHT22;4949;48.482;9.206;2024-01-16T08:21:47;-1.70;90.00
9820;DHT22;4949;48.482;9.206;2024-01-16T08:26:50;-1.80;89.90
9820;DHT22;4949;48.482;9.206;2024-01-16T08:31:51;-1.70;90.10
9820;DHT22;4949;48.482;9.206;2024-01-16T08:36:54;-1.70;90.00
9820;DHT22;4949;48.482;9.206;2024-01-16T08:41:57;-1.70;90.20
9820;DHT22;4949;48.482;9.206;2024-01-16T08:46:58;-1.90;90.10
9820;DHT22;4949;48.482;9.206;2024-01-16T08:52:05;-1.20;90.50
9820;DHT22;4949;48.482;9.206;2024-01-16T08:57:06;-1.60;90.40
9820;DHT22;4949;48.482;9.206;2024-01-16T09:02:07;-2.00;90.30
9820;DHT22;4949;48.482;9.206;2024-01-16T09:07:10;-1.10;91.10
9820;DHT22;4949;48.482;9.206;2024-01-16T09:12:16;-1.40;90.30
9820;DHT22;4949;48.482;9.206;2024-01-16T09:17:16;-1.30;90.10
9820;DHT22;4949;48.482;9.206;2024-01-16T09:22:20;-1.70;89.30
9820;DHT22;4949;48.482;9.206;2024-01-16T09:27:20;-1.30;89.80
9820;DHT22;4949;48.482;9.206;2024-01-16T09:32:21;-0.80;90.00
9820;DHT22;4949;48.482;9.206;2024-01-16T09:37:22;-1.50;89.20
9820;DHT22;4949;48.482;9.206;2024-01-16T09:42:23;-0.50;89.70
9820;DHT22;4949;48.482;9.206;2024-01-16T09:47:27;-0.70;89.10
9820;DHT22;4949;48.482;9.206;2024-01-16T09:52:33;-0.40;88.90
9820;DHT22;4949;48.482;9.206;2024-01-16T09:57:35;-0.40;88.50
9820;DHT22;4949;48.482;9.206;2024-01-16T10:02:41;-0.20;87.00
9820;DHT22;4949;48.482;9.206;2024-01-16T10:07:43;-0.50;85.80
9820;DHT22;4949;48.482;9.206;2024-01-16T10:12:49;-0.10;86.10
9820;DHT22;4949;48.482;9.206;2024-01-16T10:17:51;0.10;86.10
9820;DHT22;4949;48.482;9.206;2024-01-16T10:22:53;-0.10;85.40
9820;DHT22;4949;48.482;9.206;2024-01-16T10:28:05;0.50;85.50
9820;DHT22;4949;48.482;9.206;2024-01-16T10:33:15;0.40;85.40
9820;DHT22;4949;48.482;9.206;2024-01-16T10:38:20;0.10;85.00
9820;DHT22;4949;48.482;9.206;2024-01-16T10:43:22;0.30;84.80
9820;DHT22;4949;48.482;9.206;2024-01-16T10:48:23;0.90;84.00
9820;DHT22;4949;48.482;9.206;2024-01-16T10:53:29;1.70;81.80
9820;DHT22;4949;48.482;9.206;2024-01-16T10:58:33;2.40;79.10
9820;DHT22;4949;48.482;9.206;2024-01-16T11:03:35;3.00;77.90
9820;DHT22;4949;48.482;9.206;2024-01-16T11:08:45;3.20;75.90
9820;DHT22;4949;48.482;9.206;2024-01-16T11:13:46;4.10;73.90
9820;DHT22;4949;48.482;9.206;2024-01-16T11:18:50;4.60;71.60
9820;DHT22;4949;48.482;9.206;2024-01-16T11:23:51;5.00;69.00
9820;DHT22;4949;48.482;9.206;2024-01-16T11:28:53;5.40;67.50
9820;DHT22;4949;48.482;9.206;2024-01-16T11:34:00;5.70;65.40
9820;DHT22;4949;48.482;9.206;2024-01-16T11:39:02;6.00;64.50
9820;DHT22;4949;48.482;9.206;2024-01-16T11:44:03;5.80;64.20
9820;DHT22;4949;48.482;9.206;2024-01-16T11:49:03;6.20;65.50
9820;DHT22;4949;48.482;9.206;2024-01-16T11:54:07;6.60;62.40
9820;DHT22;4949;48.482;9.206;2024-01-16T12:04:20;6.80;60.30
9820;DHT22;4949;48.482;9.206;2024-01-16T12:09:22;6.90;58.90
9820;DHT22;4949;48.482;9.206;2024-01-16T12:14:23;7.00;57.20
9820;DHT22;4949;48.482;9.206;2024-01-16T12:19:28;7.10;56.40
9820;DHT22;4949;48.482;9.206;2024-01-16T12:24:28;7.40;55.80
9820;DHT22;4949;48.482;9.206;2024-01-16T12:29:32;7.40;55.80
9820;DHT22;4949;48.482;9.206;2024-01-16T12:34:34;7.10;54.10
9820;DHT22;4949;48.482;9.206;2024-01-16T12:39:35;7.10;53.70
9820;DHT22;4949;48.482;9.206;2024-01-16T12:44:36;7.50;54.70
9820;DHT22;4949;48.482;9.206;2024-01-16T12:49:41;7.50;53.70
9820;DHT22;4949;48.482;9.206;2024-01-16T12:54:47;7.60;53.00
9820;DHT22;4949;48.482;9.206;2024-01-16T12:59:49;7.80;52.30
9820;DHT22;4949;48.482;9.206;2024-01-16T13:04:59;8.20;52.30
9820;DHT22;4949;48.482;9.206;2024-01-16T13:10:20;7.80;51.10
9820;DHT22;4949;48.482;9.206;2024-01-16T13:15:20;7.80;51.00
9820;DHT22;4949;48.482;9.206;2024-01-16T13:20:21;7.70;51.10
9820;DHT22;4949;48.482;9.206;2024-01-16T13:25:22;7.80;51.60
9820;DHT22;4949;48.482;9.206;2024-01-16T13:30:23;8.10;49.90
9820;DHT22;4949;48.482;9.206;2024-01-16T13:35:24;7.70;50.70
9820;DHT22;4949;48.482;9.206;2024-01-16T13:40:28;7.70;51.30
9820;DHT22;4949;48.482;9.206;2024-01-16T13:45:29;7.50;51.20
9820;DHT22;4949;48.482;9.206;2024-01-16T13:50:31;7.50;51.70
9820;DHT22;4949;48.482;9.206;2024-01-16T13:55:32;7.80;51.40
9820;DHT22;4949;48.482;9.206;2024-01-16T14:00:33;7.90;51.30
9820;DHT22;4949;48.482;9.206;2024-01-16T14:05:34;7.70;51.80
9820;DHT22;4949;48.482;9.206;2024-01-16T14:10:36;7.50;51.80
9820;DHT22;4949;48.482;9.206;2024-01-16T14:15:39;7.50;51.90
9820;DHT22;4949;48.482;9.206;2024-01-16T14:20:45;7.60;51.70
9820;DHT22;4949;48.482;9.206;2024-01-16T14:25:48;7.40;52.20
9820;DHT22;4949;48.482;9.206;2024-01-16T14:30:51;7.60;51.80
9820;DHT22;4949;48.482;9.206;2024-01-16T14:35:54;7.10;51.90
9820;DHT22;4949;48.482;9.206;2024-01-16T14:40:56;7.00;52.20
9820;DHT22;4949;48.482;9.206;2024-01-16T14:45:57;7.10;52.30
9820;DHT22;4949;48.482;9.206;2024-01-16T14:51:03;6.90;51.90
9820;DHT22;4949;48.482;9.206;2024-01-16T14:56:07;6.90;52.90
9820;DHT22;4949;48.482;9.206;2024-01-16T15:01:13;6.70;52.50
9820;DHT22;4949;48.482;9.206;2024-01-16T15:06:18;6.50;53.00
9820;DHT22;4949;48.482;9.206;2024-01-16T15:11:20;6.20;53.00
9820;DHT22;4949;48.482;9.206;2024-01-16T15:16:22;6.50;53.80
9820;DHT22;4949;48.482;9.206;2024-01-16T15:21:22;5.90;54.00
9820;DHT22;4949;48.482;9.206;2024-01-16T15:26:23;5.70;54.10
9820;DHT22;4949;48.482;9.206;2024-01-16T15:31:26;5.90;54.90
9820;DHT22;4949;48.482;9.206;2024-01-16T15:36:27;5.30;55.00
9820;DHT22;4949;48.482;9.206;2024-01-16T15:41:33;5.20;55.50
9820;DHT22;4949;48.482;9.206;2024-01-16T15:46:33;4.90;56.20
9820;DHT22;4949;48.482;9.206;2024-01-16T15:51:38;4.60;57.70
9820;DHT22;4949;48.482;9.206;2024-01-16T15:56:39;4.30;58.30
9820;DHT22;4949;48.482;9.206;2024-01-16T16:01:40;4.00;59.40
9820;DHT22;4949;48.482;9.206;2024-01-16T16:06:41;3.70;61.40
9820;DHT22;4949;48.482;9.206;2024-01-16T16:11:49;3.70;61.90
9820;DHT22;4949;48.482;9.206;2024-01-16T16:16:50;3.50;61.90
9820;DHT22;4949;48.482;9.206;2024-01-16T16:21:51;3.00;64.00
9820;DHT22;4949;48.482;9.206;2024-01-16T16:26:55;2.70;65.40
9820;DHT22;4949;48.482;9.206;2024-01-16T16:31:59;2.50;66.50
9820;DHT22;4949;48.482;9.206;2024-01-16T16:37:03;2.30;67.50
9820;DHT22;4949;48.482;9.206;2024-01-16T16:42:03;2.20;68.50
9820;DHT22;4949;48.482;9.206;2024-01-16T16:47:06;2.10;68.90
9820;DHT22;4949;48.482;9.206;2024-01-16T16:52:08;2.40;70.50
9820;DHT22;4949;48.482;9.206;2024-01-16T16:57:09;1.90;71.30
9820;DHT22;4949;48.482;9.206;2024-01-16T17:02:10;1.70;71.90
9820;DHT22;4949;48.482;9.206;2024-01-16T17:07:11;1.60;72.60
9820;DHT22;4949;48.482;9.206;2024-01-16T17:12:12;1.50;73.30
9820;DHT22;4949;48.482;9.206;2024-01-16T17:17:13;1.30;74.30
9820;DHT22;4949;48.482;9.206;2024-01-16T17:22:14;0.90;74.30
9820;DHT22;4949;48.482;9.206;2024-01-16T17:27:15;1.50;75.40
9820;DHT22;4949;48.482;9.206;2024-01-16T17:32:19;1.00;77.00
9820;DHT22;4949;48.482;9.206;2024-01-16T17:37:22;1.30;77.50
9820;DHT22;4949;48.482;9.206;2024-01-16T17:42:23;0.40;77.60
9820;DHT22;4949;48.482;9.206;2024-01-16T17:47:24;0.80;78.10
9820;DHT22;4949;48.482;9.206;2024-01-16T17:52:25;0.70;78.90
9820;DHT22;4949;48.482;9.206;2024-01-16T17:57:27;1.00;80.60
9820;DHT22;4949;48.482;9.206;2024-01-16T18:02:28;0.50;80.40
9820;DHT22;4949;48.482;9.206;2024-01-16T18:07:33;0.50;81.20
9820;DHT22;4949;48.482;9.206;2024-01-16T18:12:40;0.20;81.50
9820;DHT22;4949;48.482;9.206;2024-01-16T18:17:43;-0.10;81.70
9820;DHT22;4949;48.482;9.206;2024-01-16T18:22:48;0.20;82.70
9820;DHT22;4949;48.482;9.206;2024-01-16T18:27:56;0.40;83.00
9820;DHT22;4949;48.482;9.206;2024-01-16T18:32:57;0.10;83.30
9820;DHT22;4949;48.482;9.206;2024-01-16T18:37:58;-0.40;83.10
9820;DHT22;4949;48.482;9.206;2024-01-16T18:42:59;-0.10;84.60
9820;DHT22;4949;48.482;9.206;2024-01-16T18:48:00;0.30;86.00
9820;DHT22;4949;48.482;9.206;2024-01-16T18:53:02;-0.10;86.10
9820;DHT22;4949;48.482;9.206;2024-01-16T18:58:02;0.00;86.40
9820;DHT22;4949;48.482;9.206;2024-01-16T19:03:07;-0.10;86.70
9820;DHT22;4949;48.482;9.206;2024-01-16T19:08:15;-0.60;87.50
9820;DHT22;4949;48.482;9.206;2024-01-16T19:13:24;0.00;86.90
9820;DHT22;4949;48.482;9.206;2024-01-16T19:18:24;0.20;86.90
9820;DHT22;4949;48.482;9.206;2024-01-16T19:23:25;0.10;87.30
9820;DHT22;4949;48.482;9.206;2024-01-16T19:28:30;-0.50;87.80
9820;DHT22;4949;48.482;9.206;2024-01-16T19:33:32;-0.50;88.50
9820;DHT22;4949;48.482;9.206;2024-01-16T19:38:33;-0.40;87.40
9820;DHT22;4949;48.482;9.206;2024-01-16T19:43:35;-0.40;87.60
9820;DHT22;4949;48.482;9.206;2024-01-16T19:48:36;-0.50;88.20
9820;DHT22;4949;48.482;9.206;2024-01-16T19:53:39;-0.50;89.20
9820;DHT22;4949;48.482;9.206;2024-01-16T19:58:42;-0.50;90.00
9820;DHT22;4949;48.482;9.206;2024-01-16T20:04:13;-0.60;89.70
9820;DHT22;4949;48.482;9.206;2024-01-16T20:09:20;-0.20;90.10
9820;DHT22;4949;48.482;9.206;2024-01-16T20:14:24;-0.50;90.00
9820;DHT22;4949;48.482;9.206;2024-01-16T20:19:25;-0.80;89.80
9820;DHT22;4949;48.482;9.206;2024-01-16T20:24:25;-0.20;90.00
9820;DHT22;4949;48.482;9.206;2024-01-16T20:29:27;-0.10;90.10
9820;DHT22;4949;48.482;9.206;2024-01-16T20:34:32;-0.90;89.70
9820;DHT22;4949;48.482;9.206;2024-01-16T20:39:34;-0.10;90.10
9820;DHT22;4949;48.482;9.206;2024-01-16T20:44:37;-0.30;90.00
9820;DHT22;4949;48.482;9.206;2024-01-16T20:49:38;-0.50;89.40
9820;DHT22;4949;48.482;9.206;2024-01-16T20:54:39;-0.40;89.60
9820;DHT22;4949;48.482;9.206;2024-01-16T20:59:40;-0.30;90.00
9820;DHT22;4949;48.482;9.206;2024-01-16T21:04:41;-0.50;89.80
9820;DHT22;4949;48.482;9.206;2024-01-16T21:09:42;-1.00;88.10
9820;DHT22;4949;48.482;9.206;2024-01-16T21:14:45;-0.60;89.20
9820;DHT22;4949;48.482;9.206;2024-01-16T21:19:48;-1.50;89.10
9820;DHT22;4949;48.482;9.206;2024-01-16T21:24:49;-1.40;89.90
9820;DHT22;4949;48.482;9.206;2024-01-16T21:29:54;-1.10;90.30
9820;DHT22;4949;48.482;9.206;2024-01-16T21:34:55;-1.20;90.40
9820;DHT22;4949;48.482;9.206;2024-01-16T21:39:56;-1.60;90.30
9820;DHT22;4949;48.482;9.206;2024-01-16T21:44:57;-2.00;90.30
9820;DHT22;4949;48.482;9.206;2024-01-16T21:50:01;-1.60;90.60
9820;DHT22;4949;48.482;9.206;2024-01-16T21:55:01;-1.90;90.70
9820;DHT22;4949;48.482;9.206;2024-01-16T22:00:05;-2.50;90.70
9820;DHT22;4949;48.482;9.206;2024-01-16T22:05:11;-2.50;90.70
9820;DHT22;4949;48.482;9.206;2024-01-16T22:10:12;-2.10;91.00
9820;DHT22;4949;48.482;9.206;2024-01-16T22:15:13;-2.40;91.00
9820;DHT22;4949;48.482;9.206;2024-01-16T22:20:14;-1.90;92.10
9820;DHT22;4949;48.482;9.206;2024-01-16T22:25:17;-1.90;91.50
9820;DHT22;4949;48.482;9.206;2024-01-16T22:30:21;-2.30;91.30
9820;DHT22;4949;48.482;9.206;2024-01-16T22:35:21;-2.00;91.70
9820;DHT22;4949;48.482;9.206;2024-01-16T22:40:24;-2.60;91.60
9820;DHT22;4949;48.482;9.206;2024-01-16T22:45:26;-2.50;91.90
9820;DHT22;4949;48.482;9.206;2024-01-16T22:50:27;-2.10;92.10
9820;DHT22;4949;48.482;9.206;2024-01-16T22:55:30;-2.40;92.40
9820;DHT22;4949;48.482;9.206;2024-01-16T23:00:31;-2.80;92.20
9820;DHT22;4949;48.482;9.206;2024-01-16T23:05:39;-2.20;92.50
9820;DHT22;4949;48.482;9.206;2024-01-16T23:10:44;-2.60;92.40
9820;DHT22;4949;48.482;9.206;2024-01-16T23:15:48;-2.90;92.30
9820;DHT22;4949;48.482;9.206;2024-01-16T23:20:49;-2.30;92.50
9820;DHT22;4949;48.482;9.206;2024-01-16T23:25:49;-2.30;92.60
9820;DHT22;4949;48.482;9.206;2024-01-16T23:30:52;-2.40;92.50
9820;DHT22;4949;48.482;9.206;2024-01-16T23:35:55;-2.50;92.60
9820;DHT22;4949;48.482;9.206;2024-01-16T23:40:57;-2.50;92.60
9820;DHT22;4949;48.482;9.206;2024-01-16T23:45:59;-2.70;92.70
9820;DHT22;4949;48.482;9.206;2024-01-16T23:51:00;-2.30;93.00
9820;DHT22;4949;48.482;9.206;2024-01-16T23:56:04;-2.60;92.80
